Time;durP1;ratioP1;P1;durP2;ratioP2;P2;SDS_P1;SDS_P2;PMS_P1;PMS_P2;Temp;Humidity;BMP_temperature;BMP_pressure;BME280_temperature;BME280_humidity;BME280_pressure;Samples;Min_cycle;Max_cycle;Signal;HPM_P1;HPM_P2
2021/07/18 00:01:06;;;;;;;;;;;;;;;21.97;86.43;99136.09;5055675;28;19943;-70
2021/07/18 00:03:35;;;;;;;;;;;;;;;21.90;86.33;99139.97;5055347;28;19928;-68
2021/07/18 00:06:03;;;;;;;;;;;;;;;21.88;86.35;99146.16;5055286;28;19921;-69
2021/07/18 00:08:32;;;;;;;;;;;;;;;21.91;86.40;99145.97;5055237;28;19920;-69
2021/07/18 00:11:00;;;;;;;;;;;;;;;21.94;86.32;99145.81;5055211;28;19931;-69
2021/07/18 00:13:29;;;;;;;;;;;;;;;21.93;86.16;99149.34;5055779;28;19920;-69
2021/07/18 00:15:58;;;;;;;;;;;;;;;21.97;86.17;99137.84;5055072;28;20385;-69
2021/07/18 00:18:28;;;;;;;;;;;;;;;21.94;86.08;99140.59;5055421;28;20363;-70
2021/07/18 00:20:57;;;;;;;;;;;;;;;21.95;86.09;99140.50;5055101;28;19928;-69
2021/07/18 00:23:25;;;;;;;;;;;;;;;21.92;85.90;99126.88;5054925;28;19927;-69
2021/07/18 00:25:54;;;;;;;;;;;;;;;21.90;86.08;99123.50;5054914;28;19921;-68
2021/07/18 00:28:23;;;;;;;;;;;;;;;21.86;85.84;99116.78;5037041;28;19960;-69
2021/07/18 00:30:57;;;;;;;;;;;;;;;21.91;86.01;99114.78;5054891;28;19920;-69
2021/07/18 00:33:40;;;;;;;;;;;;;;;21.94;86.07;99114.63;5054591;28;19928;-68
2021/07/18 00:36:09;;;;;;;;;;;;;;;21.93;86.16;99112.97;5055137;28;19921;-70
2021/07/18 00:38:38;;;;;;;;;;;;;;;21.92;86.08;99113.88;5054592;28;19920;-68
2021/07/18 00:41:07;;;;;;;;;;;;;;;21.91;86.09;99117.38;5055275;28;19990;-69
2021/07/18 00:43:35;;;;;;;;;;;;;;;21.86;86.08;99115.03;5054504;28;19968;-69
2021/07/18 00:46:06;;;;;;;;;;;;;;;21.81;86.24;99118.81;5054567;28;20003;-69
2021/07/18 00:48:35;;;;;;;;;;;;;;;21.77;86.27;99117.28;5055190;28;19966;-69
2021/07/18 00:51:05;;;;;;;;;;;;;;;21.79;86.42;99115.44;5054500;28;20317;-69
2021/07/18 00:53:34;;;;;;;;;;;;;;;21.80;86.07;99111.91;5054394;28;19927;-68
2021/07/18 00:56:03;;;;;;;;;;;;;;;21.80;86.29;99112.75;5054096;28;19920;-69
2021/07/18 00:58:34;;;;;;;;;;;;;;;21.81;86.15;99108.41;5054691;28;19927;-69
2021/07/18 01:01:03;;;;;;;;;;;;;;;21.81;86.01;99104.03;5054369;28;20003;-69
2021/07/18 01:03:32;;;;;;;;;;;;;;;21.78;86.05;99104.22;5054437;28;20418;-68
2021/07/18 01:06:01;;;;;;;;;;;;;;;21.76;86.07;99100.03;5054209;28;19936;-69
2021/07/18 01:08:31;;;;;;;;;;;;;;;21.75;86.26;99095.75;5054457;28;19921;-69
2021/07/18 01:11:00;;;;;;;;;;;;;;;21.70;86.15;99089.97;5054207;28;19921;-70
2021/07/18 01:13:29;;;;;;;;;;;;;;;21.67;86.18;99100.50;5054873;28;19924;-69
2021/07/18 01:15:58;;;;;;;;;;;;;;;21.66;86.22;99098.84;5036377;28;19982;-69
2021/07/18 01:18:27;;;;;;;;;;;;;;;21.63;86.27;99094.66;5054081;28;19928;-70
2021/07/18 01:20:55;;;;;;;;;;;;;;;21.65;86.19;99091.97;5054047;28;19921;-69
2021/07/18 01:23:26;;;;;;;;;;;;;;;21.66;86.26;99093.66;5053906;28;19920;-68
2021/07/18 01:25:55;;;;;;;;;;;;;;;21.65;86.36;99094.56;5053970;28;19924;-70
2021/07/18 01:28:23;;;;;;;;;;;;;;;21.63;86.17;99099.88;5054241;28;19920;-69
2021/07/18 01:30:52;;;;;;;;;;;;;;;21.61;86.33;99095.66;5053871;28;19924;-69
2021/07/18 01:33:21;;;;;;;;;;;;;;;21.59;86.39;99093.16;5053639;28;19921;-69
2021/07/18 01:35:50;;;;;;;;;;;;;;;21.53;86.27;99092.66;5053813;28;19920;-69
2021/07/18 01:38:20;;;;;;;;;;;;;;;21.53;86.04;99087.44;5053854;28;19920;-68
2021/07/18 01:40:50;;;;;;;;;;;;;;;21.51;86.10;99090.16;5054202;28;19921;-69
2021/07/18 01:43:19;;;;;;;;;;;;;;;21.36;85.88;99097.00;5053834;28;19921;-69
2021/07/18 01:45:47;;;;;;;;;;;;;;;21.28;85.96;99101.75;5053765;28;19925;-69
2021/07/18 01:48:16;;;;;;;;;;;;;;;21.35;86.08;99095.31;5053718;28;19928;-69
2021/07/18 01:50:45;;;;;;;;;;;;;;;21.40;86.17;99102.03;5053674;28;19927;-69
2021/07/18 01:53:14;;;;;;;;;;;;;;;21.30;86.13;99101.69;5053690;28;19975;-69
2021/07/18 01:55:42;;;;;;;;;;;;;;;21.27;86.18;99107.88;5053673;28;19924;-70
2021/07/18 01:58:12;;;;;;;;;;;;;;;21.25;86.01;99099.34;5053981;28;19927;-69
2021/07/18 02:00:41;;;;;;;;;;;;;;;21.18;86.00;99091.97;5053643;28;19920;-69
2021/07/18 02:03:10;;;;;;;;;;;;;;;21.13;86.13;99097.41;5053612;28;19921;-69
2021/07/18 02:05:39;;;;;;;;;;;;;;;21.08;85.81;99091.59;5054242;28;19967;-70
2021/07/18 02:08:08;;;;;;;;;;;;;;;21.06;86.23;99093.44;5057634;28;20040;-70
2021/07/18 02:10:36;;;;;;;;;;;;;;;21.07;86.29;99086.47;5057435;28;20011;-69
2021/07/18 02:13:06;;;;;;;;;;;;;;;21.07;86.32;99087.31;5057406;28;19921;-69
2021/07/18 02:15:36;;;;;;;;;;;;;;;21.15;86.31;99087.78;5057386;28;19963;-69
2021/07/18 02:18:05;;;;;;;;;;;;;;;21.09;85.92;99082.88;5057406;28;20370;-68
2021/07/18 02:20:34;;;;;;;;;;;;;;;21.02;85.88;99081.50;5057238;28;19924;-69
2021/07/18 02:23:03;;;;;;;;;;;;;;;21.06;86.11;99077.88;5057573;28;20366;-68
2021/07/18 02:25:31;;;;;;;;;;;;;;;21.15;86.18;99073.94;5057456;28;19963;-69
2021/07/18 02:28:00;;;;;;;;;;;;;;;21.23;86.28;99075.22;5039441;28;19921;-69
2021/07/18 02:30:30;;;;;;;;;;;;;;;21.19;85.99;99071.09;5057077;28;19921;-69
2021/07/18 02:33:00;;;;;;;;;;;;;;;21.20;86.09;99070.19;5057323;28;19970;-69
2021/07/18 02:35:29;;;;;;;;;;;;;;;21.22;85.98;99073.53;5057015;28;19928;-69
2021/07/18 02:37:58;;;;;;;;;;;;;;;21.21;85.92;99078.81;5056984;28;19924;-68
2021/07/18 02:40:27;;;;;;;;;;;;;;;21.17;85.74;99085.94;5056942;28;20023;-69
2021/07/18 02:42:56;;;;;;;;;;;;;;;21.24;85.65;99086.44;5057209;28;20031;-68
2021/07/18 02:45:25;;;;;;;;;;;;;;;21.19;85.68;99078.88;5056703;28;19921;-69
2021/07/18 02:47:54;;;;;;;;;;;;;;;21.22;85.74;99077.88;5057173;28;19932;-69
2021/07/18 02:50:25;;;;;;;;;;;;;;;21.25;85.72;99082.94;5022385;28;20003;-68
2021/07/18 02:52:54;;;;;;;;;;;;;;;21.24;85.61;99087.28;5056809;28;19986;-69
2021/07/18 02:55:23;;;;;;;;;;;;;;;21.26;85.59;99090.63;5056645;28;19924;-69
2021/07/18 02:57:51;;;;;;;;;;;;;;;21.13;85.53;99089.63;5056595;28;20019;-69
2021/07/18 03:00:21;;;;;;;;;;;;;;;21.16;85.60;99084.25;5057204;28;19920;-69
2021/07/18 03:02:50;;;;;;;;;;;;;;;21.22;85.60;99094.31;5038886;28;19935;-69
2021/07/18 03:05:18;;;;;;;;;;;;;;;21.26;85.63;99095.81;5056752;28;20378;-69
2021/07/18 03:07:48;;;;;;;;;;;;;;;21.24;85.50;99097.66;5056792;28;20338;-69
2021/07/18 03:10:18;;;;;;;;;;;;;;;21.26;85.30;99090.63;5056461;28;19920;-69
2021/07/18 03:12:47;;;;;;;;;;;;;;;21.30;85.33;99099.94;5056623;28;19964;-68
2021/07/18 03:15:16;;;;;;;;;;;;;;;21.29;85.13;99094.81;5057168;28;20004;-69
2021/07/18 03:17:45;;;;;;;;;;;;;;;21.32;85.29;99103.28;5055586;28;19921;-70
2021/07/18 03:20:15;;;;;;;;;;;;;;;21.33;85.17;99097.16;5056188;28;19925;-68
2021/07/18 03:22:44;;;;;;;;;;;;;;;21.27;84.88;99097.50;5056432;28;19932;-68
2021/07/18 03:25:15;;;;;;;;;;;;;;;21.27;85.11;99096.66;5056364;28;20389;-69
2021/07/18 03:27:44;;;;;;;;;;;;;;;21.28;84.99;99096.56;5056489;28;20366;-69
2021/07/18 03:30:13;;;;;;;;;;;;;;;21.31;85.06;99099.00;5056122;28;20367;-69
2021/07/18 03:32:42;;;;;;;;;;;;;;;21.27;85.08;99104.44;5056015;28;20371;-69
2021/07/18 03:35:11;;;;;;;;;;;;;;;21.24;85.05;99105.44;5056241;28;19929;-69
2021/07/18 03:37:42;;;;;;;;;;;;;;;21.22;85.06;99099.50;5055868;28;19974;-68
2021/07/18 03:40:12;;;;;;;;;;;;;;;21.22;85.06;99106.44;5056176;28;19927;-70
2021/07/18 03:42:42;;;;;;;;;;;;;;;21.24;85.17;99113.22;5055878;28;20385;-70
2021/07/18 03:45:12;;;;;;;;;;;;;;;21.25;85.23;99104.53;5055723;28;19927;-70
2021/07/18 03:47:41;;;;;;;;;;;;;;;21.18;85.17;99103.19;5055609;28;19921;-70
2021/07/18 03:50:10;;;;;;;;;;;;;;;21.13;85.16;99094.81;5055631;28;20015;-69
2021/07/18 03:52:39;;;;;;;;;;;;;;;21.15;85.05;99103.34;5037922;28;19921;-68
2021/07/18 03:55:12;;;;;;;;;;;;;;;21.11;85.26;99095.81;5055958;28;19920;-69
2021/07/18 03:57:43;;;;;;;;;;;;;;;21.12;85.44;99106.09;5055859;28;20386;-69
2021/07/18 04:00:12;;;;;;;;;;;;;;;21.14;85.21;99108.63;5055847;28;19921;-70
2021/07/18 04:02:41;;;;;;;;;;;;;;;21.12;85.16;99116.47;5055737;28;20426;-68
2021/07/18 04:05:11;;;;;;;;;;;;;;;21.12;85.42;99119.06;5055266;28;19970;-69
2021/07/18 04:07:39;;;;;;;;;;;;;;;21.15;85.30;99113.72;5055284;28;20338;-69
2021/07/18 04:10:08;;;;;;;;;;;;;;;21.21;85.29;99108.19;5055890;28;19928;-69
2021/07/18 04:12:37;;;;;;;;;;;;;;;21.23;85.15;99111.56;5055929;28;20286;-68
2021/07/18 04:15:08;;;;;;;;;;;;;;;21.26;85.12;99113.97;5055482;28;19931;-69
2021/07/18 04:17:37;;;;;;;;;;;;;;;21.30;84.90;99114.69;5055191;28;19921;-69
2021/07/18 04:20:06;;;;;;;;;;;;;;;21.31;84.91;99108.53;5055137;28;19924;-69
2021/07/18 04:22:35;;;;;;;;;;;;;;;21.38;84.81;99119.47;5055039;28;19925;-70
2021/07/18 04:25:04;;;;;;;;;;;;;;;21.43;84.69;99112.28;5054958;28;19975;-70
2021/07/18 04:27:33;;;;;;;;;;;;;;;21.46;84.63;99117.28;5037295;28;20276;-70
2021/07/18 04:30:02;;;;;;;;;;;;;;;21.47;84.50;99103.38;5054302;28;19920;-70
2021/07/18 04:32:32;;;;;;;;;;;;;;;21.46;84.31;99112.06;5055521;28;19924;-69
2021/07/18 04:35:01;;;;;;;;;;;;;;;21.47;84.35;99109.41;5054843;28;19921;-69
2021/07/18 04:37:30;;;;;;;;;;;;;;;21.55;84.37;99111.56;5054665;28;19920;-68
2021/07/18 04:39:59;;;;;;;;;;;;;;;21.61;84.20;99106.06;5054953;28;19974;-68
2021/07/18 04:42:28;;;;;;;;;;;;;;;21.66;84.03;99111.84;5054624;28;19959;-69
2021/07/18 04:44:57;;;;;;;;;;;;;;;21.75;83.92;99114.78;5054585;28;20436;-68
2021/07/18 04:47:30;;;;;;;;;;;;;;;21.82;83.67;99125.66;5054636;28;19947;-68
2021/07/18 04:50:00;;;;;;;;;;;;;;;21.87;83.37;99128.88;5054504;28;19920;-69
2021/07/18 04:52:29;;;;;;;;;;;;;;;21.95;83.33;99114.53;5054819;28;19967;-70
2021/07/18 04:54:58;;;;;;;;;;;;;;;22.07;83.22;99119.97;5054329;28;19920;-69
2021/07/18 04:57:27;;;;;;;;;;;;;;;22.11;82.93;99122.31;5054320;28;19921;-69
2021/07/18 04:59:56;;;;;;;;;;;;;;;22.24;82.72;99125.91;5054335;28;19920;-70
2021/07/18 05:02:24;;;;;;;;;;;;;;;22.33;82.44;99122.78;5054242;28;19920;-70
2021/07/18 05:04:54;;;;;;;;;;;;;;;22.32;82.16;99130.63;5054315;28;19927;-69
2021/07/18 05:07:24;;;;;;;;;;;;;;;22.33;82.01;99121.94;5054544;28;19963;-69
2021/07/18 05:09:53;;;;;;;;;;;;;;;22.35;81.98;99133.91;5054296;28;20365;-69
2021/07/18 05:12:21;;;;;;;;;;;;;;;22.34;81.89;99134.81;5054125;28;19959;-69
2021/07/18 05:14:50;;;;;;;;;;;;;;;22.31;81.63;99135.03;5054114;28;19921;-70
2021/07/18 05:17:19;;;;;;;;;;;;;;;22.32;81.61;99135.84;5054091;28;20015;-69
2021/07/18 05:19:47;;;;;;;;;;;;;;;22.35;81.69;99141.72;5054030;28;19924;-70
2021/07/18 05:22:16;;;;;;;;;;;;;;;22.39;81.57;99147.56;5019810;28;19927;-69
2021/07/18 05:24:46;;;;;;;;;;;;;;;22.45;81.56;99152.44;5053997;28;19921;-70
2021/07/18 05:27:15;;;;;;;;;;;;;;;22.46;81.40;99149.72;5054312;28;19971;-70
2021/07/18 05:29:43;;;;;;;;;;;;;;;22.52;81.29;99144.19;5054314;28;19921;-70
2021/07/18 05:32:12;;;;;;;;;;;;;;;22.58;81.12;99143.81;5053985;28;19921;-70
2021/07/18 05:34:41;;;;;;;;;;;;;;;22.65;81.07;99142.56;5054280;28;20290;-70
2021/07/18 05:37:09;;;;;;;;;;;;;;;22.72;80.87;99142.22;5036084;28;19920;-69
2021/07/18 05:39:38;;;;;;;;;;;;;;;22.73;80.48;99146.47;5036156;28;19924;-70
2021/07/18 05:42:08;;;;;;;;;;;;;;;22.77;80.38;99153.19;5059435;28;19921;-70
2021/07/18 05:44:37;;;;;;;;;;;;;;;22.85;80.21;99143.16;5060435;28;20023;-71
2021/07/18 05:47:06;;;;;;;;;;;;;;;22.94;79.93;99147.84;5060736;28;19921;-71
2021/07/18 05:49:35;;;;;;;;;;;;;;;23.00;79.65;99152.66;5060691;28;20024;-69
2021/07/18 05:52:04;;;;;;;;;;;;;;;23.11;79.58;99147.66;5042602;28;19970;-69
2021/07/18 05:54:34;;;;;;;;;;;;;;;23.20;79.15;99147.13;5060443;28;20396;-69
2021/07/18 05:57:03;;;;;;;;;;;;;;;23.35;78.73;99148.78;5060434;28;19927;-69
2021/07/18 05:59:33;;;;;;;;;;;;;;;23.46;78.23;99149.00;5060638;28;19963;-70
2021/07/18 06:02:02;;;;;;;;;;;;;;;23.60;77.79;99143.75;5060369;28;19927;-70
2021/07/18 06:04:32;;;;;;;;;;;;;;;23.72;77.47;99150.81;5060293;28;19921;-69
2021/07/18 06:07:01;;;;;;;;;;;;;;;23.85;77.01;99143.88;5060195;28;19920;-69
2021/07/18 06:09:29;;;;;;;;;;;;;;;23.96;76.87;99149.25;5060458;28;20410;-69
2021/07/18 06:11:58;;;;;;;;;;;;;;;24.09;76.35;99148.50;5060441;28;19924;-70
2021/07/18 06:14:27;;;;;;;;;;;;;;;24.23;76.32;99154.50;5060181;28;20298;-70
2021/07/18 06:16:57;;;;;;;;;;;;;;;24.38;75.73;99150.03;5060106;28;19959;-71
2021/07/18 06:19:26;;;;;;;;;;;;;;;24.48;75.22;99151.97;5060480;28;19927;-70
2021/07/18 06:21:55;;;;;;;;;;;;;;;24.64;75.13;99151.81;5060177;28;19924;-70
2021/07/18 06:24:24;;;;;;;;;;;;;;;24.75;74.60;99144.06;5060106;28;20330;-70
2021/07/18 06:26:53;;;;;;;;;;;;;;;24.75;74.60;99144.06;5060190;28;19921;-69
2021/07/18 06:29:21;;;;;;;;;;;;;;;24.86;75.11;99153.84;5060004;28;19921;-70
2021/07/18 06:31:50;;;;;;;;;;;;;;;24.94;74.57;99154.13;5059998;28;19921;-69
2021/07/18 06:34:20;;;;;;;;;;;;;;;25.03;74.39;99150.91;5059903;28;19920;-70
2021/07/18 06:36:49;;;;;;;;;;;;;;;25.11;73.96;99154.69;5060051;28;19921;-70
2021/07/18 06:39:18;;;;;;;;;;;;;;;25.23;74.07;99155.59;5059925;28;20143;-70
2021/07/18 06:41:46;;;;;;;;;;;;;;;25.39;74.01;99147.56;5060244;28;20011;-69
2021/07/18 06:44:15;;;;;;;;;;;;;;;25.60;73.55;99159.16;5059907;28;20334;-70
2021/07/18 06:46:43;;;;;;;;;;;;;;;25.73;73.16;99160.78;5059833;28;19959;-69
2021/07/18 06:49:12;;;;;;;;;;;;;;;25.80;72.37;99161.16;5059865;28;20007;-69
2021/07/18 06:51:43;;;;;;;;;;;;;;;25.88;70.94;99162.31;5060006;28;19921;-70
2021/07/18 06:54:11;;;;;;;;;;;;;;;25.94;70.17;99166.25;5055839;28;20366;-70
2021/07/18 06:56:41;;;;;;;;;;;;;;;25.99;69.37;99165.94;5056656;28;19970;-69
2021/07/18 06:59:10;;;;;;;;;;;;;;;26.01;68.48;99175.31;5038789;28;19921;-71
2021/07/18 07:01:41;;;;;;;;;;;;;;;26.07;68.19;99176.66;5056632;28;20363;-69
2021/07/18 07:04:11;;;;;;;;;;;;;;;26.20;68.28;99170.47;5056444;28;19920;-70
2021/07/18 07:06:39;;;;;;;;;;;;;;;26.38;68.18;99169.13;5056409;28;19982;-71
2021/07/18 07:09:09;;;;;;;;;;;;;;;26.48;67.49;99175.38;5056389;28;19931;-70
2021/07/18 07:11:38;;;;;;;;;;;;;;;26.50;65.97;99172.63;5056455;28;19954;-72
2021/07/18 07:14:08;;;;;;;;;;;;;;;26.60;65.76;99177.06;5056327;28;19967;-70
2021/07/18 07:16:37;;;;;;;;;;;;;;;26.77;65.36;99169.78;5056348;28;19944;-70
2021/07/18 07:19:06;;;;;;;;;;;;;;;26.75;64.02;99172.50;5056255;28;20012;-71
2021/07/18 07:21:35;;;;;;;;;;;;;;;26.90;64.42;99175.78;5056495;28;20023;-71
2021/07/18 07:24:04;;;;;;;;;;;;;;;27.00;63.71;99172.31;5056445;28;20347;-71
2021/07/18 07:26:34;;;;;;;;;;;;;;;27.09;62.31;99173.41;5056127;28;20023;-69
2021/07/18 07:29:04;;;;;;;;;;;;;;;27.08;62.34;99184.84;5056081;28;20404;-69
2021/07/18 07:31:34;;;;;;;;;;;;;;;27.12;62.33;99179.25;5056355;28;19921;-70
2021/07/18 07:34:03;;;;;;;;;;;;;;;27.30;62.37;99187.50;5055839;28;19924;-70
2021/07/18 07:36:32;;;;;;;;;;;;;;;27.47;61.91;99181.81;5056294;28;19927;-70
2021/07/18 07:39:01;;;;;;;;;;;;;;;27.61;61.34;99184.19;5055907;28;19921;-70
2021/07/18 07:41:29;;;;;;;;;;;;;;;27.64;59.98;99189.16;5055822;28;20356;-71
2021/07/18 07:44:00;;;;;;;;;;;;;;;27.70;59.94;99187.88;5055734;28;19927;-71
2021/07/18 07:46:30;;;;;;;;;;;;;;;27.88;59.99;99187.25;5055697;28;19930;-71
2021/07/18 07:48:59;;;;;;;;;;;;;;;27.89;59.68;99188.91;5055642;28;19924;-70
2021/07/18 07:51:28;;;;;;;;;;;;;;;27.73;59.67;99188.47;5055565;28;19921;-71
2021/07/18 07:53:57;;;;;;;;;;;;;;;27.64;60.22;99178.69;5055624;28;19921;-71
2021/07/18 07:56:25;;;;;;;;;;;;;;;27.68;60.23;99185.38;5055653;28;20440;-71
2021/07/18 07:58:55;;;;;;;;;;;;;;;27.65;60.26;99182.13;5055744;28;20034;-70
2021/07/18 08:01:25;;;;;;;;;;;;;;;27.49;60.22;99174.66;5055730;28;19921;-70
2021/07/18 08:04:19;;;;;;;;;;;;;;;27.45;60.34;99175.81;5055249;28;19986;-71
2021/07/18 08:06:48;;;;;;;;;;;;;;;27.45;60.10;99178.44;5055367;28;19921;-71
2021/07/18 08:09:17;;;;;;;;;;;;;;;27.38;59.46;99179.06;5059895;28;20386;-70
2021/07/18 08:11:49;;;;;;;;;;;;;;;27.33;59.35;99174.13;5063961;28;19924;-70
2021/07/18 08:14:18;;;;;;;;;;;;;;;27.31;59.72;99176.03;5069419;28;20018;-69
2021/07/18 08:16:49;;;;;;;;;;;;;;;27.24;59.95;99185.31;5063396;28;20290;-70
2021/07/18 08:19:18;;;;;;;;;;;;;;;27.23;60.18;99183.69;5064228;28;20379;-70
2021/07/18 08:21:47;;;;;;;;;;;;;;;27.30;60.46;99184.88;5072135;28;19926;-70
2021/07/18 08:24:16;;;;;;;;;;;;;;;27.38;60.12;99179.88;5075333;28;20347;-71
2021/07/18 08:26:45;;;;;;;;;;;;;;;27.71;60.10;99174.66;5075179;28;19920;-70
2021/07/18 08:29:14;;;;;;;;;;;;;;;28.05;59.82;99172.00;5074755;28;20284;-70
2021/07/18 08:31:43;;;;;;;;;;;;;;;28.34;59.09;99178.31;5074815;28;19930;-72
2021/07/18 08:34:13;;;;;;;;;;;;;;;28.61;58.14;99172.63;5074672;28;20282;-71
2021/07/18 08:36:43;;;;;;;;;;;;;;;28.79;57.30;99176.38;5075705;28;19921;-71
2021/07/18 08:39:12;;;;;;;;;;;;;;;28.90;56.76;99179.75;5074940;28;20256;-70
2021/07/18 08:41:43;;;;;;;;;;;;;;;29.02;56.01;99181.34;5074583;28;19928;-71
2021/07/18 08:44:13;;;;;;;;;;;;;;;29.01;55.19;99184.94;5074668;28;20002;-71
2021/07/18 08:46:42;;;;;;;;;;;;;;;29.17;56.27;99185.31;5055804;28;19920;-71
2021/07/18 08:49:11;;;;;;;;;;;;;;;29.40;55.46;99185.16;5054457;28;19924;-71
2021/07/18 08:51:41;;;;;;;;;;;;;;;29.44;54.48;99182.13;5054667;28;20394;-73
2021/07/18 08:54:10;;;;;;;;;;;;;;;29.43;54.24;99184.91;5055443;28;20282;-71
2021/07/18 08:56:40;;;;;;;;;;;;;;;29.59;54.50;99174.72;5054356;28;19947;-71
2021/07/18 08:59:10;;;;;;;;;;;;;;;29.75;53.82;99185.59;5054349;28;19925;-71
2021/07/18 09:01:41;;;;;;;;;;;;;;;29.84;53.80;99174.28;5054762;28;19920;-71
2021/07/18 09:04:28;;;;;;;;;;;;;;;29.92;53.03;99182.34;5054498;28;19956;-71
2021/07/18 09:07:04;;;;;;;;;;;;;;;29.97;53.02;99180.13;5054265;28;20397;-72
2021/07/18 09:09:33;;;;;;;;;;;;;;;30.12;52.43;99176.13;5054220;28;19952;-71
2021/07/18 09:12:04;;;;;;;;;;;;;;;30.29;52.54;99170.19;5054144;28;20445;-71
2021/07/18 09:14:34;;;;;;;;;;;;;;;30.39;51.81;99165.78;5053785;28;19921;-71
2021/07/18 09:17:04;;;;;;;;;;;;;;;30.59;52.35;99166.63;5053474;28;19921;-71
2021/07/18 09:19:33;;;;;;;;;;;;;;;30.65;51.85;99170.47;5054145;28;19920;-71
2021/07/18 09:22:11;;;;;;;;;;;;;;;30.61;51.32;99177.03;5053918;28;19921;-71
2021/07/18 09:24:40;;;;;;;;;;;;;;;30.54;51.15;99173.28;5036311;28;19970;-72
2021/07/18 09:27:11;;;;;;;;;;;;;;;30.54;50.97;99178.53;5053972;28;19920;-71
2021/07/18 09:29:41;;;;;;;;;;;;;;;30.52;51.09;99180.50;5054000;28;19927;-71
2021/07/18 09:32:11;;;;;;;;;;;;;;;30.63;51.53;99182.97;5054011;28;19927;-71
2021/07/18 09:34:40;;;;;;;;;;;;;;;30.85;51.22;99177.41;5053854;28;19928;-71
2021/07/18 09:37:12;;;;;;;;;;;;;;;30.80;50.99;99174.34;5053801;28;19952;-71
2021/07/18 09:39:41;;;;;;;;;;;;;;;30.76;51.57;99173.00;5053884;28;19931;-71
2021/07/18 09:42:10;;;;;;;;;;;;;;;30.88;51.41;99161.31;5053727;28;19921;-71
2021/07/18 09:44:45;;;;;;;;;;;;;;;30.99;51.19;99158.53;5053814;28;19921;-71
2021/07/18 09:47:13;;;;;;;;;;;;;;;31.18;50.57;99166.38;5053746;28;20378;-71
2021/07/18 09:49:42;;;;;;;;;;;;;;;31.23;49.76;99166.78;5053916;28;19979;-72
2021/07/18 09:52:20;;;;;;;;;;;;;;;31.49;50.68;99157.28;5053772;28;19920;-71
2021/07/18 09:54:52;;;;;;;;;;;;;;;31.54;49.07;99154.19;5053701;28;19921;-71
2021/07/18 09:57:32;;;;;;;;;;;;;;;31.41;48.75;99154.47;5053762;28;19927;-71
2021/07/18 10:00:01;;;;;;;;;;;;;;;31.31;49.14;99153.72;5053701;28;19920;-71
2021/07/18 10:02:32;;;;;;;;;;;;;;;31.28;49.08;99148.72;5053743;28;19931;-72
2021/07/18 10:05:03;;;;;;;;;;;;;;;31.43;49.37;99157.00;5053545;28;19936;-71
2021/07/18 10:07:33;;;;;;;;;;;;;;;31.41;48.92;99158.97;5053590;28;19925;-72
2021/07/18 10:10:05;;;;;;;;;;;;;;;31.47;49.13;99153.94;5053846;28;20286;-70
2021/07/18 10:12:34;;;;;;;;;;;;;;;31.47;48.58;99156.59;5053720;28;20019;-72
2021/07/18 10:15:04;;;;;;;;;;;;;;;31.32;49.11;99155.38;5054293;28;20010;-72
2021/07/18 10:17:32;;;;;;;;;;;;;;;31.32;49.45;99149.25;5053295;28;19927;-72
2021/07/18 10:20:01;;;;;;;;;;;;;;;31.48;49.01;99154.78;5053964;28;19920;-69
2021/07/18 10:22:30;;;;;;;;;;;;;;;31.38;49.58;99144.25;5053436;28;19974;-72
2021/07/18 10:24:59;;;;;;;;;;;;;;;31.26;50.04;99149.84;5053301;28;19921;-71
2021/07/18 10:27:29;;;;;;;;;;;;;;;31.29;50.69;99145.09;5053528;28;20363;-71
2021/07/18 10:30:00;;;;;;;;;;;;;;;31.14;50.43;99141.28;5057037;28;20015;-72
2021/07/18 10:32:28;;;;;;;;;;;;;;;30.98;50.38;99135.75;5056976;28;19974;-72
2021/07/18 10:34:59;;;;;;;;;;;;;;;31.00;50.95;99136.47;5057085;28;20432;-70
2021/07/18 10:37:39;;;;;;;;;;;;;;;30.92;51.78;99131.06;5057089;28;20007;-70
2021/07/18 10:40:11;;;;;;;;;;;;;;;31.00;51.79;99129.38;5057063;28;19921;-70
2021/07/18 10:42:41;;;;;;;;;;;;;;;31.23;51.06;99124.59;5057026;28;19927;-71
2021/07/18 10:45:25;;;;;;;;;;;;;;;31.31;52.16;99127.34;5057603;28;19921;-71
2021/07/18 10:48:01;;;;;;;;;;;;;;;31.42;51.09;99119.22;5037209;28;19928;-72
2021/07/18 10:50:41;;;;;;;;;;;;;;;31.34;50.92;99116.47;5056759;28;19921;-70
2021/07/18 10:53:21;;;;;;;;;;;;;;;31.21;51.07;99118.63;5056827;28;19921;-72
2021/07/18 10:55:50;;;;;;;;;;;;;;;31.30;49.99;99120.38;5056715;28;19927;-71
2021/07/18 10:58:35;;;;;;;;;;;;;;;31.22;50.01;99119.47;5056914;28;19920;-72
2021/07/18 11:01:06;;;;;;;;;;;;;;;31.13;50.82;99114.06;5056651;28;19921;-70
2021/07/18 11:03:35;;;;;;;;;;;;;;;31.17;51.10;99116.44;5056551;28;20440;-69
2021/07/18 11:06:19;;;;;;;;;;;;;;;31.47;50.64;99122.28;5039003;28;20011;-71
2021/07/18 11:08:59;;;;;;;;;;;;;;;31.77;49.50;99119.31;5056426;28;19948;-70
2021/07/18 11:11:48;;;;;;;;;;;;;;;31.92;51.03;99126.72;5056732;28;19927;-71
2021/07/18 11:14:22;;;;;;;;;;;;;;;32.05;49.91;99121.94;5051905;28;20015;-71
2021/07/18 11:16:52;;;;;;;;;;;;;;;31.68;48.67;99114.09;5056415;28;19921;-70
2021/07/18 11:19:33;;;;;;;;;;;;;;;31.67;48.81;99115.09;5048114;28;19920;-69
2021/07/18 11:22:02;;;;;;;;;;;;;;;31.82;49.41;99110.16;5073284;28;19932;-70
2021/07/18 11:24:47;;;;;;;;;;;;;;;31.73;48.12;99106.56;5075660;28;19920;-70
2021/07/18 11:27:26;;;;;;;;;;;;;;;31.65;49.03;99102.03;5072282;28;20011;-71
2021/07/18 11:29:56;;;;;;;;;;;;;;;31.61;47.66;99098.03;5069657;28;19924;-70
2021/07/18 11:32:28;;;;;;;;;;;;;;;31.93;48.42;99092.28;5071003;28;19924;-71
2021/07/18 11:34:57;;;;;;;;;;;;;;;32.21;47.86;99090.41;5067025;28;19921;-70
2021/07/18 11:37:26;;;;;;;;;;;;;;;32.38;47.13;99087.75;5069623;28;20015;-70
2021/07/18 11:40:15;;;;;;;;;;;;;;;32.68;46.85;99078.56;5075449;28;20366;-71
2021/07/18 11:42:48;;;;;;;;;;;;;;;32.69;46.55;99074.94;5075934;28;20282;-71
2021/07/18 11:45:16;;;;;;;;;;;;;;;32.71;46.65;99087.97;5075974;28;19927;-71
2021/07/18 11:47:47;;;;;;;;;;;;;;;32.73;46.06;99078.91;5071860;28;19920;-70
2021/07/18 11:50:16;;;;;;;;;;;;;;;32.79;45.80;99080.94;5073540;28;19974;-73
2021/07/18 11:52:45;;;;;;;;;;;;;;;32.57;45.63;99076.19;5075510;28;20003;-71
2021/07/18 11:55:13;;;;;;;;;;;;;;;32.78;45.67;99074.00;5075532;28;20019;-71
2021/07/18 11:57:42;;;;;;;;;;;;;;;32.91;45.78;99084.16;5070874;28;19920;-71
2021/07/18 12:00:13;;;;;;;;;;;;;;;32.96;45.78;99088.00;5071786;28;19924;-73
2021/07/18 12:02:44;;;;;;;;;;;;;;;33.09;45.74;99072.53;5070591;28;19921;-75
2021/07/18 12:05:14;;;;;;;;;;;;;;;33.00;45.88;99076.09;5051865;28;19970;-72
2021/07/18 12:07:43;;;;;;;;;;;;;;;32.86;45.51;99071.41;5071861;28;19924;-71
2021/07/18 12:10:18;;;;;;;;;;;;;;;32.44;45.73;99065.16;5073562;28;19942;-72
2021/07/18 12:12:47;;;;;;;;;;;;;;;32.05;46.15;99069.13;5075280;28;19920;-72
2021/07/18 12:15:16;;;;;;;;;;;;;;;31.75;46.57;99063.22;5075182;28;20012;-71
2021/07/18 12:17:45;;;;;;;;;;;;;;;31.46;47.45;99067.03;5064380;28;20023;-71
2021/07/18 12:20:21;;;;;;;;;;;;;;;31.23;48.07;99056.00;5055750;28;19921;-74
2021/07/18 12:22:49;;;;;;;;;;;;;;;31.05;48.71;99050.66;5074882;28;19942;-71
2021/07/18 12:25:19;;;;;;;;;;;;;;;30.88;49.17;99055.88;5074898;28;19959;-73
2021/07/18 12:27:51;;;;;;;;;;;;;;;30.75;49.64;99060.63;5072866;28;19938;-72
2021/07/18 12:30:23;;;;;;;;;;;;;;;30.64;49.71;99073.97;5061870;28;19920;-70
2021/07/18 12:32:52;;;;;;;;;;;;;;;30.52;49.92;99071.47;5072498;28;20263;-72
2021/07/18 12:35:24;;;;;;;;;;;;;;;30.39;50.13;99070.97;5069248;28;20025;-72
2021/07/18 12:37:53;;;;;;;;;;;;;;;30.03;52.66;99094.50;5072932;28;19920;-70
2021/07/18 12:40:22;;;;;;;;;;;;;;;29.67;54.40;99090.69;5075381;28;19928;-71
2021/07/18 12:42:53;;;;;;;;;;;;;;;29.42;55.54;99083.31;5074941;28;19924;-69
2021/07/18 12:45:24;;;;;;;;;;;;;;;29.16;56.56;99078.47;5074585;28;19927;-69
2021/07/18 12:48:00;;;;;;;;;;;;;;;28.95;57.92;99085.59;5074569;28;19927;-70
2021/07/18 12:50:32;;;;;;;;;;;;;;;28.69;59.58;99097.47;5073986;28;19924;-71
2021/07/18 12:53:07;;;;;;;;;;;;;;;28.46;61.54;99099.38;5074546;28;19927;-69
2021/07/18 12:55:41;;;;;;;;;;;;;;;28.27;62.37;99114.13;5057200;28;20369;-71
2021/07/18 12:58:11;;;;;;;;;;;;;;;28.18;63.83;99125.41;5074453;28;19935;-70
2021/07/18 13:00:40;;;;;;;;;;;;;;;27.98;65.79;99128.78;5074251;28;19927;-71
2021/07/18 13:03:14;;;;;;;;;;;;;;;27.80;66.40;99129.31;5074201;28;19920;-71